Grand Marais, Michigan
Current Conditions -  °F | °C
As of 6:54 PM on Friday 21 Nov 2014 (Local Time) from KERY Reporting Station
Overcast Overcast  
Wind Chill: 15°   Ceiling: 11000
Heat Index: 28°   Visibility: 10mi
Dew Point: 22°   Wind: 20mph
Humidity: 77%   Direction: 200°SSW
Pressure: 30.08"   Gusts: 28mph
Location:  46.67°N, 85.99°W
Report Text: KERY 212354Z AUTO 20017G24KT 10SM SCT090 OVC110 M02/M06 A3008 RMK AO2 T10221057
Loading
Personal Weather Stations






























Interactive Weather Map New forecast layout! Learn more

10-Day Weather Forecast

Advertisements
Track Severe Weather on mobile